Time;durP1;ratioP1;P1;durP2;ratioP2;P2;SDS_P1;SDS_P2;PMS_P1;PMS_P2;Temp;Humidity;BMP_temperature;BMP_pressure;BME280_temperature;BME280_humidity;BME280_pressure;Samples;Min_cycle;Max_cycle;Signal;HPM_P1;HPM_P2
2022/05/26 00:00:59;;;;;;;2.03;1.83;;;17.10;99.90;;;;;;5027077;28;20853;-70
2022/05/26 00:03:26;;;;;;;1.60;1.37;;;17.10;99.90;;;;;;5025122;28;20762;-70
2022/05/26 00:05:53;;;;;;;4.67;1.70;;;17.00;99.90;;;;;;5035711;28;20608;-70
2022/05/26 00:08:19;;;;;;;1.60;1.50;;;16.90;99.90;;;;;;5031178;28;20493;-69
2022/05/26 00:10:47;;;;;;;3.53;2.03;;;16.80;99.90;;;;;;5031873;28;20516;-70
2022/05/26 00:13:14;;;;;;;1.73;1.63;;;16.80;99.90;;;;;;5030707;28;20881;-70
2022/05/26 00:15:41;;;;;;;2.87;1.77;;;16.90;99.90;;;;;;5030142;28;20464;-70
2022/05/26 00:18:07;;;;;;;2.03;1.83;;;16.90;99.90;;;;;;5022661;28;20488;-70
2022/05/26 00:20:34;;;;;;;2.00;1.80;;;16.80;99.90;;;;;;5027814;28;20591;-69
2022/05/26 00:23:03;;;;;;;1.63;1.40;;;16.60;99.90;;;;;;5025810;28;25227;-70
2022/05/26 00:25:30;;;;;;;2.60;2.17;;;16.50;99.90;;;;;;5039460;28;20819;-70
2022/05/26 00:27:58;;;;;;;1.80;1.57;;;16.50;99.90;;;;;;5040373;28;20545;-70
2022/05/26 00:30:25;;;;;;;3.60;1.90;;;16.60;99.90;;;;;;5030883;28;20471;-70
2022/05/26 00:32:52;;;;;;;5.63;1.93;;;16.70;99.90;;;;;;5032051;28;20624;-70
2022/05/26 00:35:18;;;;;;;1.40;1.20;;;16.80;99.90;;;;;;5038128;28;20459;-71
2022/05/26 00:37:46;;;;;;;2.00;1.70;;;16.80;99.90;;;;;;5028992;28;20528;-70
2022/05/26 00:40:14;;;;;;;3.47;1.97;;;16.70;99.90;;;;;;5036285;28;20465;-70
2022/05/26 00:42:41;;;;;;;6.33;2.20;;;16.60;99.90;;;;;;5034249;28;20805;-69
2022/05/26 00:45:10;;;;;;;2.23;1.77;;;16.60;99.90;;;;;;5030479;28;20491;-70
2022/05/26 00:47:44;;;;;;;3.53;2.13;;;16.60;99.90;;;;;;5032080;28;20466;-71
2022/05/26 00:50:18;;;;;;;1.90;1.77;;;16.60;99.90;;;;;;5038749;28;20828;-70
2022/05/26 00:52:50;;;;;;;1.67;1.57;;;16.50;99.90;;;;;;5039935;28;20463;-71
2022/05/26 00:55:22;;;;;;;3.87;1.97;;;16.60;99.90;;;;;;5031346;28;20520;-70
2022/05/26 00:57:52;;;;;;;2.30;2.10;;;16.50;99.90;;;;;;5033459;28;20989;-70
2022/05/26 01:00:22;;;;;;;2.87;2.43;;;16.50;99.90;;;;;;5034663;28;20450;-70
2022/05/26 01:03:00;;;;;;;2.63;2.27;;;16.60;99.90;;;;;;5035272;28;20488;-70
2022/05/26 01:05:32;;;;;;;3.93;2.50;;;16.60;99.90;;;;;;5032113;28;21123;-70
2022/05/26 01:08:00;;;;;;;2.30;1.80;;;16.60;99.90;;;;;;5035310;28;20485;-70
2022/05/26 01:10:27;;;;;;;2.03;1.80;;;16.60;99.90;;;;;;5032683;28;20477;-70
2022/05/26 01:12:54;;;;;;;2.30;1.90;;;16.60;99.90;;;;;;5032240;28;20503;-70
2022/05/26 01:15:23;;;;;;;2.27;2.03;;;16.60;99.90;;;;;;5034991;28;20462;-70
2022/05/26 01:18:02;;;;;;;3.00;1.80;;;16.60;99.90;;;;;;5039245;28;21237;-70
2022/05/26 01:20:48;;;;;;;2.40;2.20;;;16.70;99.90;;;;;;5033283;28;20966;-70
2022/05/26 01:23:29;;;;;;;4.20;2.20;;;16.80;99.90;;;;;;5030199;28;20466;-71
2022/05/26 01:26:52;;;;;;;3.10;2.57;;;16.70;99.90;;;;;;5032319;28;20484;-70
2022/05/26 01:29:49;;;;;;;2.30;2.10;;;16.60;99.90;;;;;;5030534;28;20866;-72
2022/05/26 01:32:25;;;;;;;2.10;1.90;;;16.60;99.90;;;;;;5011313;28;20455;-71
2022/05/26 01:34:58;;;;;;;3.10;2.50;;;16.70;99.90;;;;;;5032617;28;20471;-70
2022/05/26 01:37:31;;;;;;;2.50;1.80;;;16.80;99.90;;;;;;5023815;28;20543;-70
2022/05/26 01:40:05;;;;;;;3.83;2.13;;;16.80;99.90;;;;;;5027063;28;20635;-70
2022/05/26 01:42:43;;;;;;;2.30;1.70;;;16.80;99.90;;;;;;5034539;28;20487;-70
2022/05/26 01:45:16;;;;;;;3.00;1.67;;;16.80;99.90;;;;;;5030102;28;21067;-70
2022/05/26 01:47:50;;;;;;;2.57;2.37;;;16.80;99.90;;;;;;5030625;28;20469;-70
2022/05/26 01:50:26;;;;;;;3.00;2.03;;;16.70;99.90;;;;;;5028146;28;20505;-69
2022/05/26 01:53:06;;;;;;;3.20;2.00;;;16.60;99.90;;;;;;5030447;28;20505;-70
2022/05/26 01:55:39;;;;;;;1.50;1.40;;;16.50;99.90;;;;;;5027770;28;20550;-71
2022/05/26 01:58:11;;;;;;;2.70;2.10;;;16.50;99.90;;;;;;5032769;28;20696;-71
2022/05/26 02:00:40;;;;;;;2.47;2.07;;;16.50;99.90;;;;;;5028180;28;20497;-71
2022/05/26 02:03:11;;;;;;;2.33;1.80;;;16.60;99.90;;;;;;5032196;28;20537;-70
2022/05/26 02:05:41;;;;;;;2.50;2.00;;;16.60;99.90;;;;;;5033754;28;20492;-70
2022/05/26 02:08:13;;;;;;;4.90;1.53;;;16.60;99.90;;;;;;5032576;28;20611;-70
2022/05/26 02:10:47;;;;;;;2.53;2.33;;;16.60;99.90;;;;;;5031095;28;20869;-70
2022/05/26 02:13:19;;;;;;;3.03;2.73;;;16.50;99.90;;;;;;5030080;28;25239;-70
2022/05/26 02:15:50;;;;;;;2.20;2.00;;;16.50;99.90;;;;;;5032086;28;20466;-70
2022/05/26 02:18:26;;;;;;;2.17;1.97;;;16.40;99.90;;;;;;5026879;28;21003;-70
2022/05/26 02:20:55;;;;;;;3.50;2.60;;;16.50;99.90;;;;;;5037316;28;20520;-70
2022/05/26 02:23:29;;;;;;;2.13;1.63;;;16.50;99.90;;;;;;5031752;28;20520;-70
2022/05/26 02:25:56;;;;;;;4.03;1.53;;;16.60;99.90;;;;;;5029662;28;20467;-69
2022/05/26 02:28:23;;;;;;;8.30;2.67;;;16.50;99.90;;;;;;5025156;28;20547;-70
2022/05/26 02:30:50;;;;;;;2.27;1.80;;;16.50;99.90;;;;;;5032563;28;20914;-71
2022/05/26 02:33:19;;;;;;;3.10;1.77;;;16.50;99.90;;;;;;5034493;28;20536;-70
2022/05/26 02:35:48;;;;;;;2.63;2.10;;;16.50;99.90;;;;;;5025877;28;20465;-70
2022/05/26 02:38:22;;;;;;;2.73;2.10;;;16.40;99.90;;;;;;5027269;28;22878;-70
2022/05/26 02:40:50;;;;;;;9.70;2.23;;;16.40;99.90;;;;;;5034529;28;20470;-70
2022/05/26 02:43:20;;;;;;;2.07;1.73;;;16.40;99.90;;;;;;5031403;28;20910;-69
2022/05/26 02:45:59;;;;;;;2.27;2.00;;;16.50;99.90;;;;;;5031287;28;20587;-70
2022/05/26 02:49:02;;;;;;;3.33;2.20;;;16.50;99.90;;;;;;5031423;28;20532;-70
2022/05/26 02:51:38;;;;;;;2.07;1.90;;;16.50;99.90;;;;;;5035415;28;20533;-70
2022/05/26 02:54:16;;;;;;;4.10;2.10;;;16.50;99.90;;;;;;5030452;28;20484;-70
2022/05/26 02:57:08;;;;;;;5.60;2.33;;;16.60;99.90;;;;;;5028202;28;20477;-70
2022/05/26 02:59:44;;;;;;;3.73;3.17;;;16.60;99.90;;;;;;5029937;28;20492;-70
2022/05/26 03:02:16;;;;;;;6.83;2.57;;;16.50;99.90;;;;;;5031848;28;20541;-70
2022/05/26 03:04:49;;;;;;;2.30;2.10;;;16.40;99.90;;;;;;5032830;28;20471;-70
2022/05/26 03:07:23;;;;;;;1.73;1.47;;;16.30;99.90;;;;;;5025992;28;20463;-70
2022/05/26 03:09:50;;;;;;;2.30;1.73;;;16.30;99.90;;;;;;5035595;28;20516;-71
2022/05/26 03:12:23;;;;;;;3.07;2.87;;;16.30;99.90;;;;;;5035977;28;20495;-70
2022/05/26 03:14:50;;;;;;;4.83;2.30;;;16.20;99.90;;;;;;5030910;28;20878;-70
2022/05/26 03:17:16;;;;;;;6.00;2.37;;;16.30;99.90;;;;;;5031627;28;20469;-70
2022/05/26 03:19:44;;;;;;;3.27;2.17;;;16.20;99.90;;;;;;5027386;28;20487;-70
2022/05/26 03:22:11;;;;;;;3.63;2.43;;;16.20;99.90;;;;;;5031357;28;20580;-70
2022/05/26 03:24:38;;;;;;;5.93;2.43;;;16.30;99.90;;;;;;5035168;28;20600;-70
2022/05/26 03:27:06;;;;;;;2.83;2.50;;;16.30;99.90;;;;;;5032073;28;20483;-70
2022/05/26 03:29:33;;;;;;;4.80;2.50;;;16.30;99.90;;;;;;5028026;28;20461;-70
2022/05/26 03:32:00;;;;;;;7.47;3.00;;;16.30;99.90;;;;;;5027813;28;21124;-71
2022/05/26 03:42:48;;;;;;;9.00;4.03;;;16.20;99.90;;;;;;5026601;28;21055;-70
2022/05/26 03:45:19;;;;;;;5.17;3.07;;;16.10;99.90;;;;;;5039538;28;20960;-70
2022/05/26 03:47:45;;;;;;;3.47;2.83;;;16.20;99.90;;;;;;5029885;28;20491;-70
2022/05/26 03:50:12;;;;;;;3.97;3.60;;;16.20;99.90;;;;;;5031075;28;20468;-70
2022/05/26 03:52:40;;;;;;;3.93;3.13;;;16.40;99.90;;;;;;5032465;28;20459;-70
2022/05/26 03:55:07;;;;;;;5.33;3.07;;;16.40;99.90;;;;;;5033890;28;20886;-70
2022/05/26 03:57:34;;;;;;;5.53;2.73;;;16.30;99.90;;;;;;5028892;28;20525;-70
2022/05/26 04:00:01;;;;;;;2.67;2.47;;;16.40;99.90;;;;;;5029546;28;20546;-70
2022/05/26 04:02:28;;;;;;;4.63;2.83;;;16.40;99.90;;;;;;5026401;28;20490;-70
2022/05/26 04:04:56;;;;;;;2.97;2.77;;;16.30;99.90;;;;;;5023649;28;20453;-70
2022/05/26 04:07:22;;;;;;;3.10;2.80;;;16.30;99.90;;;;;;5023792;28;20469;-70
2022/05/26 04:09:50;;;;;;;3.63;2.80;;;16.40;99.90;;;;;;5034473;22;20493;-75
2022/05/26 04:12:19;;;;;;;3.33;2.90;;;16.40;99.90;;;;;;5026224;28;20480;-75
2022/05/26 04:14:46;;;;;;;6.67;3.00;;;16.40;99.90;;;;;;5031072;28;20887;-75
2022/05/26 04:17:13;;;;;;;8.50;3.27;;;16.40;99.90;;;;;;5026071;28;20556;-76
2022/05/26 04:19:41;;;;;;;3.10;2.50;;;16.50;99.90;;;;;;5021466;28;20455;-76
2022/05/26 04:22:18;;;;;;;3.20;2.73;;;16.50;99.90;;;;;;5024746;28;21012;-75
2022/05/26 04:24:47;;;;;;;9.07;3.27;;;16.50;99.90;;;;;;5026282;28;20478;-75
2022/05/26 04:27:19;;;;;;;4.50;3.40;;;16.40;99.90;;;;;;5030247;28;20912;-74
2022/05/26 04:29:46;;;;;;;4.37;3.70;;;16.40;99.90;;;;;;5032777;28;20489;-75
2022/05/26 04:32:13;;;;;;;9.83;6.73;;;16.30;99.90;;;;;;5025368;28;20454;-76
2022/05/26 04:34:40;;;;;;;3.73;2.73;;;16.20;99.90;;;;;;5031354;28;20492;-75
2022/05/26 04:37:07;;;;;;;4.77;3.50;;;16.30;99.90;;;;;;5031544;28;20468;-76
2022/05/26 04:39:34;;;;;;;5.67;4.13;;;16.30;99.90;;;;;;5037054;28;22115;-74
2022/05/26 04:42:03;;;;;;;6.57;3.50;;;16.30;99.90;;;;;;5031200;28;20488;-75
2022/05/26 04:44:33;;;;;;;6.30;3.50;;;16.30;99.90;;;;;;5032186;28;20456;-76
2022/05/26 04:47:00;;;;;;;4.27;3.80;;;16.30;99.90;;;;;;5025697;28;20470;-76
2022/05/26 04:49:26;;;;;;;2.93;2.37;;;16.30;99.90;;;;;;5028314;28;20484;-75
2022/05/26 04:51:53;;;;;;;6.40;2.67;;;16.30;99.90;;;;;;5034036;28;20477;-75
2022/05/26 04:54:21;;;;;;;1.83;1.60;;;16.20;99.90;;;;;;5031364;28;20457;-74
2022/05/26 04:56:47;;;;;;;4.20;2.80;;;16.10;99.90;;;;;;5037663;28;20900;-74
2022/05/26 04:59:14;;;;;;;5.60;3.67;;;16.00;99.90;;;;;;5032422;28;20508;-75
2022/05/26 05:01:42;;;;;;;2.80;2.43;;;16.00;99.90;;;;;;5027558;28;20471;-75
2022/05/26 05:04:10;;;;;;;3.90;2.23;;;16.00;99.90;;;;;;5025781;28;20459;-76
2022/05/26 05:06:36;;;;;;;5.60;3.20;;;16.10;99.90;;;;;;5033600;28;20463;-75
2022/05/26 05:09:04;;;;;;;3.10;2.33;;;16.10;99.90;;;;;;5034762;28;20922;-75
2022/05/26 05:11:30;;;;;;;7.00;3.80;;;16.10;99.90;;;;;;5029000;28;20470;-75
2022/05/26 05:13:57;;;;;;;4.73;3.47;;;16.20;99.90;;;;;;5032133;28;20505;-76
2022/05/26 05:16:27;;;;;;;6.73;4.30;;;16.20;99.90;;;;;;5037133;28;20491;-76
2022/05/26 05:18:56;;;;;;;13.57;5.70;;;16.20;99.90;;;;;;5041763;28;20455;-76
2022/05/26 05:21:26;;;;;;;7.77;5.40;;;16.20;99.90;;;;;;5029473;28;20957;-75
2022/05/26 05:23:59;;;;;;;13.50;6.13;;;16.20;99.90;;;;;;5038251;28;21045;-76
2022/05/26 05:26:30;;;;;;;7.77;5.27;;;16.30;99.90;;;;;;5034704;28;20454;-76
2022/05/26 05:29:02;;;;;;;9.27;5.63;;;16.30;99.90;;;;;;5031992;28;20491;-76
2022/05/26 05:31:34;;;;;;;19.40;6.40;;;16.30;99.90;;;;;;5031832;28;20457;-76
2022/05/26 05:34:06;;;;;;;9.67;5.27;;;16.50;99.90;;;;;;5037829;28;20462;-76
2022/05/26 05:36:35;;;;;;;13.33;6.60;;;16.60;99.90;;;;;;5036042;28;20466;-76
2022/05/26 05:39:04;;;;;;;9.73;6.20;;;16.50;99.90;;;;;;5032076;28;20818;-76
2022/05/26 05:41:34;;;;;;;6.63;4.40;;;16.50;99.90;;;;;;5027997;28;20528;-76
2022/05/26 05:44:02;;;;;;;10.23;6.43;;;16.50;99.90;;;;;;5024623;28;20482;-76
2022/05/26 05:46:34;;;;;;;12.43;6.27;;;16.50;99.90;;;;;;5031784;28;20729;-76
2022/05/26 05:49:04;;;;;;;12.87;6.03;;;16.60;99.90;;;;;;5027454;28;20497;-75
2022/05/26 05:51:32;;;;;;;8.30;6.40;;;16.70;99.90;;;;;;5026221;28;20592;-76
2022/05/26 05:53:58;;;;;;;12.17;5.67;;;16.70;99.90;;;;;;5029459;28;20567;-76
2022/05/26 05:56:26;;;;;;;11.80;6.10;;;16.80;99.90;;;;;;5020504;28;20487;-74
2022/05/26 05:58:53;;;;;;;11.90;6.83;;;16.70;99.90;;;;;;5026581;28;21015;-73
2022/05/26 06:01:20;;;;;;;9.77;7.47;;;16.80;99.90;;;;;;5033216;28;20467;-74
2022/05/26 06:03:47;;;;;;;13.00;6.70;;;16.90;99.90;;;;;;5035312;28;20521;-74
2022/05/26 06:06:15;;;;;;;12.33;6.10;;;16.90;99.90;;;;;;5040059;28;21027;-74
2022/05/26 06:08:42;;;;;;;11.53;5.40;;;17.00;99.90;;;;;;5033277;28;21032;-74
2022/05/26 06:11:08;;;;;;;8.87;6.20;;;17.00;99.90;;;;;;5025217;28;20553;-73
2022/05/26 06:13:35;;;;;;;11.17;8.70;;;16.90;99.90;;;;;;5027562;28;20555;-74
2022/05/26 06:16:02;;;;;;;10.83;6.83;;;16.90;99.90;;;;;;5038558;28;20948;-74
2022/05/26 06:18:28;;;;;;;9.33;6.47;;;16.90;99.90;;;;;;5029762;28;20972;-74
2022/05/26 06:21:01;;;;;;;10.10;7.00;;;16.90;99.90;;;;;;5032831;28;20991;-74
2022/05/26 06:23:29;;;;;;;22.33;6.87;;;16.80;99.90;;;;;;5029365;28;20535;-74
2022/05/26 06:25:56;;;;;;;7.90;5.90;;;16.80;99.90;;;;;;5033003;28;20536;-74
2022/05/26 06:31:08;;;;;;;8.60;5.30;;;16.70;99.90;;;;;;5040086;28;20526;-73
2022/05/26 06:39:06;;;;;;;10.03;6.53;;;16.90;99.90;;;;;;5038856;28;20472;-72
2022/05/26 06:44:18;;;;;;;15.10;8.40;;;17.00;99.90;;;;;;5035417;28;20485;-73
2022/05/26 06:46:46;;;;;;;18.23;7.70;;;17.00;99.90;;;;;;5033604;28;20489;-74
2022/05/26 06:49:12;;;;;;;9.60;5.90;;;16.90;99.90;;;;;;5029471;28;20506;-73
2022/05/26 06:51:42;;;;;;;6.43;4.73;;;16.90;99.90;;;;;;5026769;28;20470;-74
2022/05/26 06:54:10;;;;;;;15.07;6.80;;;16.80;99.90;;;;;;5033091;28;20538;-72
2022/05/26 06:56:37;;;;;;;11.93;7.33;;;16.70;99.90;;;;;;5030594;28;20965;-74
2022/05/26 06:59:03;;;;;;;10.43;8.53;;;16.80;99.90;;;;;;5032655;28;20490;-72
2022/05/26 07:01:31;;;;;;;11.87;7.73;;;16.80;99.90;;;;;;5034467;28;20555;-73
2022/05/26 07:03:57;;;;;;;8.67;6.20;;;17.00;99.90;;;;;;5033158;28;20603;-73
2022/05/26 07:06:27;;;;;;;10.27;7.20;;;17.20;99.90;;;;;;5031099;28;20534;-74
2022/05/26 07:08:54;;;;;;;9.50;5.87;;;17.20;99.90;;;;;;5035022;28;20485;-73
2022/05/26 07:11:23;;;;;;;10.53;6.63;;;17.40;99.90;;;;;;5033014;28;20461;-73
2022/05/26 07:13:50;;;;;;;10.77;6.20;;;17.70;99.90;;;;;;5022481;28;20521;-72
2022/05/26 07:16:17;;;;;;;6.63;5.53;;;17.70;99.90;;;;;;5037158;28;20513;-72
2022/05/26 07:18:44;;;;;;;8.90;6.00;;;17.70;99.90;;;;;;5036775;28;20486;-73
2022/05/26 07:21:12;;;;;;;8.53;5.60;;;18.10;99.90;;;;;;5028713;28;20469;-74
2022/05/26 07:23:39;;;;;;;9.30;5.70;;;18.90;99.90;;;;;;5029491;28;21294;-73
2022/05/26 07:26:06;;;;;;;5.43;4.70;;;19.70;99.90;;;;;;5026210;28;20487;-72
2022/05/26 07:28:35;;;;;;;8.97;6.30;;;20.10;99.90;;;;;;5031246;28;21035;-73
2022/05/26 07:31:02;;;;;;;6.90;5.20;;;20.50;99.90;;;;;;5030034;28;20967;-72
2022/05/26 07:33:28;;;;;;;12.43;5.90;;;21.00;99.90;;;;;;5021943;28;20470;-73
2022/05/26 07:35:55;;;;;;;6.40;5.47;;;21.20;99.90;;;;;;5023842;28;21135;-73
2022/05/26 07:41:20;;;;;;;9.03;5.57;;;20.80;99.90;;;;;;5035797;28;21049;-73
2022/05/26 07:43:52;;;;;;;7.50;5.60;;;20.50;99.90;;;;;;5028336;28;20490;-74
2022/05/26 07:46:20;;;;;;;16.80;6.73;;;20.80;99.90;;;;;;5036150;28;20549;-73
2022/05/26 07:48:47;;;;;;;9.50;6.57;;;20.90;99.90;;;;;;5027273;28;20873;-74
2022/05/26 07:51:14;;;;;;;10.60;6.40;;;20.80;99.90;;;;;;5028402;28;20551;-74
2022/05/26 07:53:40;;;;;;;10.90;6.07;;;21.00;99.90;;;;;;5033667;28;20511;-74
2022/05/26 07:56:07;;;;;;;6.73;5.63;;;21.20;99.90;;;;;;5036398;28;20891;-74
2022/05/26 07:58:35;;;;;;;8.40;5.87;;;21.10;99.90;;;;;;5040013;28;20545;-74
2022/05/26 08:01:03;;;;;;;6.27;4.70;;;21.10;99.90;;;;;;5029793;28;20488;-74
2022/05/26 08:03:29;;;;;;;9.00;6.50;;;21.00;99.90;;;;;;5030614;28;20820;-73
2022/05/26 08:05:56;;;;;;;9.87;5.70;;;20.70;99.90;;;;;;5031443;28;20514;-72
2022/05/26 08:08:23;;;;;;;8.03;6.50;;;20.30;99.90;;;;;;5033008;28;20461;-73
2022/05/26 08:10:50;;;;;;;9.80;6.67;;;19.90;99.90;;;;;;5023692;28;20452;-74
2022/05/26 08:13:16;;;;;;;9.80;6.40;;;20.20;99.90;;;;;;5032415;28;20919;-73
2022/05/26 08:15:43;;;;;;;8.57;6.20;;;20.50;99.90;;;;;;5029372;28;20827;-74
2022/05/26 08:18:11;;;;;;;17.60;8.20;;;20.50;99.90;;;;;;5028777;28;20469;-73
2022/05/26 08:20:37;;;;;;;14.93;9.00;;;20.70;99.90;;;;;;5026219;28;20463;-73
2022/05/26 08:23:05;;;;;;;14.23;8.00;;;20.30;99.90;;;;;;5034127;28;20483;-74
2022/05/26 08:25:32;;;;;;;14.10;8.60;;;20.10;99.90;;;;;;5034498;28;20520;-73
2022/05/26 08:27:58;;;;;;;10.30;7.00;;;20.10;99.90;;;;;;5024437;28;20467;-74
2022/05/26 08:30:25;;;;;;;7.63;6.63;;;20.30;99.90;;;;;;5031227;28;20479;-74
2022/05/26 08:32:53;;;;;;;11.93;6.40;;;20.10;99.90;;;;;;5029577;28;20462;-73
2022/05/26 08:35:21;;;;;;;13.23;6.70;;;20.00;99.90;;;;;;5037022;28;20795;-74
2022/05/26 08:37:48;;;;;;;10.47;7.50;;;19.70;99.90;;;;;;5030190;28;20463;-73
2022/05/26 08:40:27;;;;;;;18.63;7.57;;;19.60;99.90;;;;;;5037147;28;20482;-74
2022/05/26 08:42:53;;;;;;;8.50;6.10;;;19.30;99.90;;;;;;5030606;28;20460;-74
2022/05/26 08:45:20;;;;;;;12.00;8.37;;;19.20;99.90;;;;;;5031403;28;20965;-74
2022/05/26 08:47:51;;;;;;;12.00;6.97;;;19.10;99.90;;;;;;5038210;28;20459;-74
2022/05/26 08:50:24;;;;;;;9.73;7.57;;;19.00;99.90;;;;;;5029898;28;20490;-73
2022/05/26 08:52:58;;;;;;;10.23;8.20;;;18.80;99.90;;;;;;5035942;28;20770;-72
2022/05/26 08:55:28;;;;;;;9.43;7.37;;;18.90;99.90;;;;;;5043931;28;20463;-72
2022/05/26 08:58:00;;;;;;;10.10;6.30;;;18.90;99.90;;;;;;5040319;28;20454;-75
2022/05/26 09:00:27;;;;;;;12.70;7.27;;;19.00;99.90;;;;;;5029055;28;21093;-72
2022/05/26 09:02:55;;;;;;;12.00;6.67;;;19.50;99.90;;;;;;5033770;28;20960;-75
2022/05/26 09:05:24;;;;;;;9.03;6.50;;;20.70;99.90;;;;;;5040657;28;20833;-73
2022/05/26 09:13:33;;;;;;;9.33;7.40;;;21.60;99.90;;;;;;5021175;28;20568;-73
2022/05/26 09:16:00;;;;;;;10.33;6.50;;;23.00;99.90;;;;;;5030089;28;20773;-73
2022/05/26 09:18:27;;;;;;;5.93;5.30;;;23.90;99.90;;;;;;5024454;28;20464;-72
2022/05/26 09:21:13;;;;;;;7.40;5.37;;;24.50;99.90;;;;;;5025515;28;20470;-74
2022/05/26 09:23:43;;;;;;;10.43;6.00;;;24.50;99.90;;;;;;5026643;28;20506;-72
2022/05/26 09:26:12;;;;;;;7.77;6.67;;;23.90;99.90;;;;;;5023256;28;20550;-72
2022/05/26 09:28:44;;;;;;;6.27;5.60;;;23.50;99.90;;;;;;5019020;28;20490;-73
2022/05/26 09:31:21;;;;;;;8.70;6.03;;;23.30;99.90;;;;;;5020250;28;20909;-74
2022/05/26 09:34:01;;;;;;;8.93;6.03;;;23.00;99.90;;;;;;5017416;28;20959;-73
2022/05/26 09:36:31;;;;;;;11.30;7.33;;;22.20;99.90;;;;;;5014355;28;20956;-71
2022/05/26 09:38:58;;;;;;;9.60;6.50;;;21.90;99.90;;;;;;5023765;28;20550;-72
2022/05/26 09:41:25;;;;;;;8.30;7.50;;;21.50;99.90;;;;;;5033525;28;20806;-74
2022/05/26 09:43:57;;;;;;;8.63;5.00;;;21.00;99.90;;;;;;5035997;28;20919;-73
2022/05/26 09:46:27;;;;;;;6.17;4.50;;;21.40;99.90;;;;;;5028095;28;20877;-72
2022/05/26 09:48:58;;;;;;;8.17;4.63;;;22.10;99.90;;;;;;5030031;28;20490;-73
2022/05/26 09:51:27;;;;;;;5.33;4.83;;;22.60;99.90;;;;;;5028471;28;20596;-74
2022/05/26 09:53:56;;;;;;;6.50;4.97;;;22.90;99.90;;;;;;5029302;28;20465;-74
2022/05/26 09:56:33;;;;;;;6.87;6.30;;;23.30;99.90;;;;;;5032267;28;20466;-72
2022/05/26 09:58:59;;;;;;;7.43;4.67;;;22.80;99.90;;;;;;5036867;28;20477;-74
2022/05/26 10:01:43;;;;;;;5.07;4.30;;;22.30;99.90;;;;;;5038915;28;20474;-76
2022/05/26 10:04:27;;;;;;;4.73;3.60;;;22.60;99.90;;;;;;5042352;28;20485;-76
2022/05/26 10:07:00;;;;;;;6.70;4.17;;;23.70;99.90;;;;;;5030592;28;20457;-75
2022/05/26 10:09:42;;;;;;;8.53;4.10;;;25.00;99.90;;;;;;5112364;22;21863;-72
2022/05/26 10:12:21;;;;;;;5.33;4.30;;;24.50;99.90;;;;;;5052137;28;20518;-72
2022/05/26 10:15:03;;;;;;;7.37;4.40;;;23.50;99.90;;;;;;5060034;28;20873;-71
2022/05/26 10:17:43;;;;;;;5.30;4.80;;;22.30;99.90;;;;;;5059826;28;20490;-71
2022/05/26 10:20:22;;;;;;;5.33;4.73;;;22.20;99.90;;;;;;5048964;28;20482;-69
2022/05/26 10:23:01;;;;;;;6.00;4.03;;;22.70;99.90;;;;;;5059562;28;20932;-70
2022/05/26 10:25:35;;;;;;;5.73;4.67;;;24.70;99.90;;;;;;5053018;28;20491;-70
2022/05/26 10:28:41;;;;;;;7.33;3.80;;;26.10;99.90;;;;;;5050070;28;20480;-70
2022/05/26 10:31:18;;;;;;;4.20;3.57;;;26.30;99.90;;;;;;5055368;28;20501;-71
2022/05/26 10:33:58;;;;;;;4.97;3.40;;;24.70;99.90;;;;;;5047811;28;20512;-71
2022/05/26 10:36:31;;;;;;;6.93;4.63;;;23.50;99.90;;;;;;5050534;28;20630;-70
2022/05/26 10:39:10;;;;;;;5.73;3.97;;;22.70;99.90;;;;;;5047415;28;20458;-71
2022/05/26 10:41:44;;;;;;;7.60;5.50;;;22.00;99.90;;;;;;5049450;28;20487;-71
2022/05/26 10:44:19;;;;;;;4.70;4.07;;;21.50;99.90;;;;;;5053816;28;20492;-72
2022/05/26 10:46:51;;;;;;;4.60;3.80;;;21.10;99.90;;;;;;5045155;28;20961;-71
2022/05/26 10:49:22;;;;;;;5.83;4.40;;;21.10;99.90;;;;;;5048216;28;20476;-72
2022/05/26 10:51:53;;;;;;;6.27;4.40;;;21.00;99.90;;;;;;5046422;28;20466;-71
2022/05/26 10:54:32;;;;;;;6.57;4.93;;;21.60;99.90;;;;;;5047622;28;20458;-70
2022/05/26 10:57:05;;;;;;;6.23;4.80;;;22.90;99.90;;;;;;5053887;28;20458;-72
2022/05/26 10:59:36;;;;;;;11.23;6.40;;;23.40;99.90;;;;;;5038793;28;20927;-72
2022/05/26 11:02:10;;;;;;;8.30;4.30;;;23.30;99.90;;;;;;5053844;28;20532;-70
2022/05/26 11:04:44;;;;;;;3.87;3.47;;;23.20;99.90;;;;;;5052994;28;20485;-70
2022/05/26 11:07:16;;;;;;;7.30;4.03;;;23.10;99.90;;;;;;5052391;28;20547;-70
2022/05/26 11:09:48;;;;;;;7.00;3.10;;;22.60;99.90;;;;;;5050413;28;20500;-70
2022/05/26 11:12:21;;;;;;;7.60;3.87;;;22.30;99.90;;;;;;5045362;28;20489;-70
2022/05/26 11:17:42;;;;;;;7.67;3.60;;;22.10;99.90;;;;;;5057456;28;20954;-70
2022/05/26 11:20:14;;;;;;;6.00;3.80;;;21.80;99.90;;;;;;5052639;28;20487;-71
2022/05/26 11:22:45;;;;;;;3.53;3.23;;;21.50;99.90;;;;;;5057054;28;20469;-71
2022/05/26 11:25:15;;;;;;;6.13;4.63;;;21.40;99.90;;;;;;5054493;28;20849;-71
2022/05/26 11:27:49;;;;;;;10.03;4.97;;;21.40;99.90;;;;;;5054004;28;20480;-70
2022/05/26 11:36:10;;;;;;;9.83;3.60;;;21.10;99.90;;;;;;5056768;28;20454;-72
2022/05/26 11:38:43;;;;;;;5.57;3.70;;;21.20;99.90;;;;;;5045760;28;20463;-72
2022/05/26 11:41:14;;;;;;;9.00;3.90;;;22.20;99.90;;;;;;5047045;28;20601;-72
2022/05/26 11:43:45;;;;;;;2.73;2.53;;;23.50;99.90;;;;;;5047784;28;20480;-70
2022/05/26 11:46:33;;;;;;;3.40;2.90;;;24.70;99.90;;;;;;5049455;28;20826;-71
2022/05/26 11:48:59;;;;;;;3.63;2.40;;;24.40;99.60;;;;;;5045709;28;20535;-71
2022/05/26 11:51:30;;;;;;;6.80;3.17;;;23.50;99.60;;;;;;5050510;28;20545;-72
2022/05/26 11:53:59;;;;;;;4.30;3.90;;;22.80;99.90;;;;;;5044274;28;20539;-71
2022/05/26 11:56:43;;;;;;;3.90;2.90;;;22.20;99.90;;;;;;5054961;28;20791;-72
2022/05/26 11:59:46;;;;;;;5.50;2.47;;;21.40;99.90;;;;;;5053790;28;20536;-71
2022/05/26 12:02:29;;;;;;;4.37;3.50;;;21.00;99.90;;;;;;5060035;28;20561;-71
2022/05/26 12:04:56;;;;;;;10.40;3.80;;;20.70;99.90;;;;;;5047442;28;20482;-71
2022/05/26 12:07:39;;;;;;;5.73;2.97;;;21.10;99.90;;;;;;5056786;28;20594;-71
2022/05/26 12:10:23;;;;;;;3.07;2.50;;;22.50;99.90;;;;;;5052280;28;20915;-71
2022/05/26 12:12:50;;;;;;;4.90;3.20;;;23.90;99.90;;;;;;5053085;28;20469;-71
2022/05/26 12:15:20;;;;;;;7.23;3.70;;;24.10;99.90;;;;;;5049098;28;20469;-71
2022/05/26 12:17:50;;;;;;;3.93;3.60;;;24.10;99.90;;;;;;5057022;28;20569;-71
2022/05/26 12:20:39;;;;;;;6.23;4.23;;;23.40;99.90;;;;;;5057726;28;20681;-71
2022/05/26 12:23:24;;;;;;;4.20;3.00;;;23.00;99.90;;;;;;5049767;28;20473;-70
2022/05/26 12:26:26;;;;;;;4.23;2.87;;;22.60;99.90;;;;;;5059396;28;20543;-71
2022/05/26 12:28:53;;;;;;;5.30;3.30;;;22.40;99.90;;;;;;5056883;28;20467;-72
2022/05/26 12:31:20;;;;;;;5.23;3.20;;;22.60;99.90;;;;;;5053437;28;20494;-71
2022/05/26 12:34:14;;;;;;;6.87;3.70;;;23.20;99.90;;;;;;5051304;28;20460;-72
2022/05/26 12:36:58;;;;;;;4.20;2.63;;;24.50;99.30;;;;;;5053575;28;20540;-72
2022/05/26 12:39:56;;;;;;;4.03;2.73;;;24.60;97.70;;;;;;5047187;28;20485;-72
2022/05/26 12:42:40;;;;;;;5.00;3.10;;;24.30;98.30;;;;;;5048876;28;20520;-72
2022/05/26 12:45:30;;;;;;;6.27;2.90;;;24.10;99.30;;;;;;5055098;28;20491;-72
2022/05/26 12:48:07;;;;;;;4.43;3.20;;;24.00;99.60;;;;;;5048894;28;20466;-72
2022/05/26 12:50:43;;;;;;;7.90;3.40;;;24.20;98.40;;;;;;5054361;28;20512;-71
2022/05/26 12:53:17;;;;;;;8.23;3.10;;;24.70;97.40;;;;;;5049181;28;20680;-72
2022/05/26 12:55:58;;;;;;;5.67;3.03;;;25.40;94.40;;;;;;5048009;28;20530;-73
2022/05/26 12:58:33;;;;;;;4.10;2.87;;;25.70;94.70;;;;;;5042381;28;21049;-73
2022/05/26 13:01:02;;;;;;;6.70;3.63;;;25.80;93.60;;;;;;5048940;28;20521;-72
2022/05/26 13:03:32;;;;;;;3.47;2.80;;;25.60;94.80;;;;;;5055021;28;20544;-72
2022/05/26 13:06:07;;;;;;;2.87;2.67;;;25.50;93.90;;;;;;5056480;28;20899;-72
2022/05/26 13:08:45;;;;;;;4.23;3.20;;;25.30;93.60;;;;;;5052851;28;20456;-72
2022/05/26 13:11:15;;;;;;;3.70;2.77;;;24.50;94.50;;;;;;5056196;28;20489;-72
2022/05/26 13:13:48;;;;;;;3.90;3.10;;;24.20;95.00;;;;;;5054509;28;20462;-72
2022/05/26 13:16:22;;;;;;;5.30;3.83;;;23.90;96.60;;;;;;5052114;28;20459;-72
2022/05/26 13:18:49;;;;;;;4.80;3.57;;;25.10;96.30;;;;;;5047785;28;20462;-72
2022/05/26 13:21:18;;;;;;;3.77;3.37;;;25.70;94.40;;;;;;5050817;28;20482;-72
2022/05/26 13:23:44;;;;;;;5.33;3.40;;;26.10;93.60;;;;;;5055992;28;20461;-72
2022/05/26 13:26:13;;;;;;;4.00;3.57;;;26.80;93.40;;;;;;5051410;28;20566;-72
2022/05/26 13:28:46;;;;;;;5.70;4.10;;;26.90;91.50;;;;;;5048731;28;20466;-72
2022/05/26 13:34:02;;;;;;;4.67;3.70;;;26.60;91.70;;;;;;5054554;28;20459;-71
2022/05/26 13:36:34;;;;;;;3.70;3.00;;;25.10;92.60;;;;;;5042550;28;20611;-72
2022/05/26 13:39:07;;;;;;;4.53;2.67;;;23.90;94.00;;;;;;5043452;28;21102;-71
2022/05/26 13:41:35;;;;;;;5.90;3.13;;;23.40;95.90;;;;;;5031857;28;20954;-71
2022/05/26 13:44:05;;;;;;;5.17;3.13;;;23.40;96.60;;;;;;5051994;28;20461;-72
2022/05/26 13:46:35;;;;;;;5.40;3.13;;;23.60;97.20;;;;;;5052156;28;20508;-72